Time;durP1;ratioP1;P1;durP2;ratioP2;P2;SDS_P1;SDS_P2;PMS_P1;PMS_P2;Temp;Humidity;BMP_temperature;BMP_pressure;BME280_temperature;BME280_humidity;BME280_pressure;Samples;Min_cycle;Max_cycle;Signal;HPM_P1;HPM_P2
2021/02/06 00:01:56;;;;;;;1.86;1.76;;;;;;;19.05;49.89;99797.50;;;;-55
2021/02/06 00:04:56;;;;;;;2.89;1.90;;;;;;;19.03;49.92;99792.82;;;;-55
2021/02/06 00:07:56;;;;;;;1.97;1.87;;;;;;;19.01;49.92;99786.02;;;;-54
2021/02/06 00:10:56;;;;;;;2.10;1.93;;;;;;;18.98;49.92;99776.98;;;;-55
2021/02/06 00:13:56;;;;;;;2.04;1.83;;;;;;;18.98;49.91;99792.81;;;;-55
2021/02/06 00:16:56;;;;;;;2.13;1.93;;;;;;;18.95;49.92;99770.83;;;;-55
2021/02/06 00:19:56;;;;;;;2.21;2.01;;;;;;;18.95;49.91;99786.18;;;;-54
2021/02/06 00:22:56;;;;;;;1.88;1.78;;;;;;;18.93;49.93;99779.44;;;;-54
2021/02/06 00:25:56;;;;;;;1.99;1.80;;;;;;;18.92;49.95;99789.02;;;;-54
2021/02/06 00:28:56;;;;;;;2.16;1.96;;;;;;;18.91;49.90;99787.24;;;;-55
2021/02/06 00:31:56;;;;;;;2.07;1.89;;;;;;;18.89;49.92;99789.28;;;;-55
2021/02/06 00:34:56;;;;;;;2.05;1.87;;;;;;;18.87;49.95;99790.98;;;;-55
2021/02/06 00:37:56;;;;;;;2.05;1.85;;;;;;;18.86;49.94;99787.64;;;;-54
2021/02/06 00:40:56;;;;;;;2.00;1.90;;;;;;;18.84;49.95;99789.45;;;;-54
2021/02/06 00:43:56;;;;;;;1.90;1.80;;;;;;;18.83;49.97;99787.58;;;;-54
2021/02/06 00:46:56;;;;;;;2.09;1.84;;;;;;;18.82;49.97;99779.13;;;;-56
2021/02/06 00:49:56;;;;;;;1.79;1.69;;;;;;;18.80;49.98;99783.76;;;;-55
2021/02/06 00:52:56;;;;;;;1.80;1.70;;;;;;;18.79;49.97;99783.69;;;;-55
2021/02/06 00:55:56;;;;;;;1.91;1.80;;;;;;;18.76;50.02;99783.34;;;;-54
2021/02/06 00:58:56;;;;;;;1.79;1.69;;;;;;;18.76;50.01;99780.51;;;;-55
2021/02/06 01:01:56;;;;;;;1.89;1.79;;;;;;;18.75;50.03;99781.31;;;;-55
2021/02/06 01:04:55;;;;;;;2.05;1.76;;;;;;;18.73;50.03;99785.29;;;;-55
2021/02/06 01:07:56;;;;;;;2.11;1.91;;;;;;;18.72;50.04;99783.52;;;;-54
2021/02/06 01:10:56;;;;;;;1.90;1.80;;;;;;;18.71;50.05;99776.94;;;;-55
2021/02/06 01:13:56;;;;;;;1.95;1.69;;;;;;;18.70;50.07;99772.65;;;;-54
2021/02/06 01:16:56;;;;;;;1.79;1.69;;;;;;;18.68;50.05;99783.84;;;;-54
2021/02/06 01:19:56;;;;;;;1.84;1.71;;;;;;;18.67;50.09;99783.66;;;;-54
2021/02/06 01:22:56;;;;;;;1.87;1.77;;;;;;;18.64;50.09;99778.57;;;;-54
2021/02/06 01:25:56;;;;;;;1.89;1.71;;;;;;;18.64;50.08;99775.81;;;;-54
2021/02/06 01:28:56;;;;;;;2.09;1.89;;;;;;;18.63;50.11;99774.09;;;;-56
2021/02/06 01:31:56;;;;;;;1.80;1.70;;;;;;;18.61;50.12;99774.34;;;;-55
2021/02/06 01:34:56;;;;;;;1.90;1.80;;;;;;;18.60;50.11;99769.08;;;;-54
2021/02/06 01:37:56;;;;;;;1.89;1.79;;;;;;;18.60;50.11;99766.25;;;;-55
2021/02/06 01:40:56;;;;;;;1.89;1.79;;;;;;;18.57;50.14;99765.61;;;;-55
2021/02/06 01:43:55;;;;;;;1.85;1.75;;;;;;;18.57;50.14;99764.20;;;;-54
2021/02/06 01:46:56;;;;;;;1.90;1.80;;;;;;;18.55;50.18;99759.69;;;;-55
2021/02/06 01:49:56;;;;;;;1.86;1.76;;;;;;;18.55;50.16;99760.41;;;;-55
2021/02/06 01:52:55;;;;;;;1.91;1.80;;;;;;;18.54;50.16;99763.33;;;;-54
2021/02/06 01:55:56;;;;;;;1.77;1.67;;;;;;;18.53;50.16;99764.53;;;;-54
2021/02/06 01:58:56;;;;;;;2.70;1.92;;;;;;;18.52;50.18;99763.65;;;;-54
2021/02/06 02:01:56;;;;;;;1.70;1.60;;;;;;;18.50;50.20;99756.59;;;;-54
2021/02/06 02:04:56;;;;;;;1.79;1.69;;;;;;;18.50;50.20;99758.22;;;;-55
2021/02/06 02:07:55;;;;;;;1.69;1.59;;;;;;;18.48;50.22;99752.94;;;;-54
2021/02/06 02:10:56;;;;;;;1.79;1.69;;;;;;;18.47;50.21;99749.39;;;;-55
2021/02/06 02:13:56;;;;;;;1.93;1.77;;;;;;;18.46;50.19;99746.94;;;;-54
2021/02/06 02:16:56;;;;;;;1.69;1.59;;;;;;;18.46;50.21;99748.33;;;;-55
2021/02/06 02:19:56;;;;;;;1.95;1.85;;;;;;;18.44;50.20;99741.25;;;;-54
2021/02/06 02:23:56;;;;;;;1.89;1.79;;;;;;;18.43;50.20;99736.48;;;;-54
2021/02/06 02:26:56;;;;;;;2.31;1.75;;;;;;;18.42;50.24;99732.74;;;;-54
2021/02/06 02:29:56;;;;;;;1.83;1.73;;;;;;;18.41;50.21;99725.77;;;;-55
2021/02/06 02:32:56;;;;;;;1.86;1.76;;;;;;;18.40;50.21;99723.58;;;;-54
2021/02/06 02:35:55;;;;;;;1.89;1.79;;;;;;;18.39;50.24;99724.00;;;;-54
2021/02/06 02:38:56;;;;;;;2.18;1.87;;;;;;;18.38;50.24;99729.17;;;;-54
2021/02/06 02:41:56;;;;;;;1.81;1.70;;;;;;;18.38;50.23;99726.57;;;;-54
2021/02/06 02:44:56;;;;;;;1.92;1.80;;;;;;;18.37;50.24;99723.44;;;;-55
2021/02/06 02:47:56;;;;;;;1.80;1.70;;;;;;;18.35;50.24;99719.37;;;;-54
2021/02/06 02:50:56;;;;;;;1.87;1.77;;;;;;;18.35;50.25;99718.41;;;;-55
2021/02/06 02:53:56;;;;;;;1.79;1.69;;;;;;;18.33;50.23;99719.78;;;;-54
2021/02/06 02:56:56;;;;;;;1.97;1.79;;;;;;;18.33;50.25;99722.70;;;;-55
2021/02/06 02:59:56;;;;;;;1.96;1.82;;;;;;;18.32;50.27;99724.56;;;;-54
2021/02/06 03:02:56;;;;;;;1.91;1.81;;;;;;;18.31;50.23;99716.80;;;;-54
2021/02/06 03:05:56;;;;;;;1.89;1.79;;;;;;;18.30;50.29;99721.58;;;;-54
2021/02/06 03:08:55;;;;;;;1.83;1.73;;;;;;;18.28;50.25;99719.71;;;;-55
2021/02/06 03:11:56;;;;;;;1.96;1.86;;;;;;;18.28;50.27;99717.58;;;;-54
2021/02/06 03:14:56;;;;;;;1.99;1.89;;;;;;;18.27;50.26;99700.41;;;;-55
2021/02/06 03:17:56;;;;;;;1.83;1.73;;;;;;;18.26;50.29;99691.91;;;;-54
2021/02/06 03:20:56;;;;;;;1.90;1.80;;;;;;;18.25;50.29;99691.96;;;;-54
2021/02/06 03:23:56;;;;;;;1.81;1.71;;;;;;;18.25;50.29;99688.31;;;;-54
2021/02/06 03:26:56;;;;;;;1.89;1.78;;;;;;;18.25;50.26;99686.38;;;;-54
2021/02/06 03:29:56;;;;;;;1.98;1.81;;;;;;;18.24;50.26;99681.98;;;;-55
2021/02/06 03:32:55;;;;;;;1.94;1.70;;;;;;;18.23;50.28;99679.15;;;;-54
2021/02/06 03:35:56;;;;;;;1.92;1.82;;;;;;;18.22;50.25;99672.25;;;;-54
2021/02/06 03:38:56;;;;;;;1.87;1.77;;;;;;;18.21;50.25;99666.42;;;;-54
2021/02/06 03:41:55;;;;;;;1.80;1.70;;;;;;;18.20;50.27;99657.69;;;;-55
2021/02/06 03:44:56;;;;;;;1.83;1.73;;;;;;;18.20;50.25;99652.98;;;;-54
2021/02/06 03:47:55;;;;;;;1.81;1.71;;;;;;;18.18;50.29;99657.11;;;;-54
2021/02/06 03:50:56;;;;;;;1.84;1.72;;;;;;;18.17;50.31;99661.56;;;;-55
2021/02/06 03:53:56;;;;;;;1.90;1.80;;;;;;;18.17;50.28;99658.39;;;;-54
2021/02/06 03:56:55;;;;;;;1.86;1.76;;;;;;;18.16;50.27;99653.15;;;;-56
2021/02/06 03:59:56;;;;;;;1.85;1.75;;;;;;;18.15;50.30;99653.21;;;;-54
2021/02/06 04:02:56;;;;;;;1.71;1.61;;;;;;;18.14;50.30;99649.98;;;;-54
2021/02/06 04:05:55;;;;;;;1.70;1.60;;;;;;;18.14;50.28;99655.09;;;;-55
2021/02/06 04:08:56;;;;;;;1.71;1.61;;;;;;;18.13;50.28;99652.31;;;;-54
2021/02/06 04:11:56;;;;;;;1.94;1.81;;;;;;;18.13;50.28;99644.45;;;;-54
2021/02/06 04:14:55;;;;;;;1.80;1.70;;;;;;;18.12;50.30;99637.91;;;;-54
2021/02/06 04:17:56;;;;;;;1.77;1.67;;;;;;;18.11;50.30;99632.78;;;;-54
2021/02/06 04:20:55;;;;;;;1.71;1.61;;;;;;;18.11;50.27;99629.46;;;;-54
2021/02/06 04:23:56;;;;;;;1.78;1.68;;;;;;;18.11;50.30;99628.25;;;;-54
2021/02/06 04:26:56;;;;;;;1.71;1.61;;;;;;;18.10;50.30;99619.27;;;;-54
2021/02/06 04:29:56;;;;;;;1.72;1.62;;;;;;;18.09;50.30;99612.03;;;;-54
2021/02/06 04:32:56;;;;;;;1.60;1.50;;;;;;;18.08;50.27;99605.64;;;;-55
2021/02/06 04:35:56;;;;;;;1.70;1.60;;;;;;;18.07;50.30;99612.05;;;;-54
2021/02/06 04:38:56;;;;;;;1.67;1.57;;;;;;;18.06;50.32;99607.42;;;;-54
2021/02/06 04:41:56;;;;;;;1.81;1.71;;;;;;;18.05;50.32;99605.80;;;;-54
2021/02/06 04:44:56;;;;;;;1.71;1.61;;;;;;;18.05;50.30;99606.20;;;;-55
2021/02/06 04:47:56;;;;;;;1.80;1.70;;;;;;;18.04;50.30;99611.97;;;;-55
2021/02/06 04:50:56;;;;;;;1.78;1.68;;;;;;;18.04;50.31;99601.59;;;;-54
2021/02/06 04:53:55;;;;;;;1.80;1.70;;;;;;;18.03;50.32;99604.49;;;;-54
2021/02/06 04:56:56;;;;;;;1.85;1.65;;;;;;;18.02;50.33;99605.33;;;;-54
2021/02/06 04:59:55;;;;;;;1.59;1.49;;;;;;;18.02;50.30;99601.27;;;;-55
2021/02/06 05:02:56;;;;;;;1.75;1.65;;;;;;;18.01;50.33;99600.20;;;;-54
2021/02/06 05:05:56;;;;;;;1.65;1.55;;;;;;;18.01;50.30;99598.42;;;;-54
2021/02/06 05:08:55;;;;;;;1.60;1.50;;;;;;;18.00;50.28;99597.45;;;;-54
2021/02/06 05:11:56;;;;;;;3.24;2.43;;;;;;;17.87;50.29;99594.64;;;;-56
2021/02/06 05:14:58;;;;;;;3.05;2.75;;;;;;;17.77;50.26;99585.70;;;;-56
2021/02/06 05:17:55;;;;;;;3.40;3.10;;;;;;;17.66;50.36;99582.16;;;;-56
2021/02/06 05:20:56;;;;;;;3.66;3.31;;;;;;;17.60;50.34;99581.98;;;;-57
2021/02/06 05:23:57;;;;;;;4.45;3.45;;;;;;;17.55;50.42;99583.11;;;;-56
2021/02/06 05:26:56;;;;;;;3.69;3.39;;;;;;;17.49;50.54;99586.37;;;;-56
2021/02/06 05:29:56;;;;;;;3.85;3.54;;;;;;;17.46;50.56;99584.97;;;;-56
2021/02/06 05:32:55;;;;;;;4.37;3.87;;;;;;;17.40;50.62;99569.25;;;;-56
2021/02/06 05:35:56;;;;;;;4.05;3.65;;;;;;;17.34;50.70;99561.80;;;;-56
2021/02/06 05:38:55;;;;;;;3.84;3.54;;;;;;;17.32;50.80;99560.91;;;;-56
2021/02/06 05:41:56;;;;;;;4.34;3.94;;;;;;;17.29;50.77;99561.65;;;;-56
2021/02/06 05:44:56;;;;;;;4.40;4.00;;;;;;;17.25;50.81;99563.91;;;;-56
2021/02/06 05:47:55;;;;;;;4.86;3.91;;;;;;;17.30;50.93;99556.13;;;;-53
2021/02/06 05:50:56;;;;;;;4.13;3.33;;;;;;;17.40;50.81;99555.49;;;;-51
2021/02/06 05:53:56;;;;;;;3.94;2.97;;;;;;;17.47;50.77;99561.02;;;;-57
2021/02/06 05:56:55;;;;;;;2.99;2.69;;;;;;;17.51;50.89;99556.53;;;;-51
2021/02/06 05:59:56;;;;;;;2.81;2.61;;;;;;;17.55;50.97;99561.88;;;;-56
2021/02/06 06:02:55;;;;;;;3.77;2.64;;;;;;;17.58;50.89;99564.33;;;;-56
2021/02/06 06:05:56;;;;;;;2.54;2.30;;;;;;;17.60;50.83;99567.73;;;;-57
2021/02/06 06:08:56;;;;;;;5.52;2.71;;;;;;;17.61;50.86;99571.61;;;;-52
2021/02/06 06:11:55;;;;;;;2.47;2.23;;;;;;;17.62;50.90;99572.35;;;;-58
2021/02/06 06:14:56;;;;;;;2.15;1.99;;;;;;;17.65;51.00;99568.36;;;;-55
2021/02/06 06:17:56;;;;;;;8.07;2.27;;;;;;;17.67;50.94;99568.77;;;;-58
2021/02/06 06:20:55;;;;;;;2.24;2.04;;;;;;;17.70;51.00;99565.45;;;;-55
2021/02/06 06:23:56;;;;;;;2.10;1.90;;;;;;;17.73;51.03;99562.69;;;;-54
2021/02/06 06:26:55;;;;;;;2.63;2.08;;;;;;;17.76;50.96;99562.44;;;;-59
2021/02/06 06:29:55;;;;;;;2.43;2.08;;;;;;;17.78;51.14;99566.24;;;;-60
2021/02/06 06:32:56;;;;;;;2.30;2.10;;;;;;;17.81;51.14;99564.96;;;;-50
2021/02/06 06:35:55;;;;;;;2.29;2.03;;;;;;;17.84;51.09;99568.21;;;;-52
2021/02/06 06:38:55;;;;;;;2.28;1.98;;;;;;;17.89;51.08;99570.82;;;;-51
2021/02/06 06:41:56;;;;;;;2.29;2.09;;;;;;;17.92;51.26;99566.83;;;;-52
2021/02/06 06:44:55;;;;;;;2.40;2.20;;;;;;;17.96;51.12;99568.11;;;;-50
2021/02/06 06:47:56;;;;;;;2.61;2.25;;;;;;;18.01;51.28;99559.75;;;;-51
2021/02/06 06:50:55;;;;;;;3.48;2.35;;;;;;;18.04;51.09;99554.48;;;;-55
2021/02/06 06:53:55;;;;;;;2.87;2.23;;;;;;;18.08;50.75;99552.05;;;;-55
2021/02/06 06:56:56;;;;;;;2.17;1.92;;;;;;;18.11;50.74;99548.06;;;;-54
2021/02/06 06:59:55;;;;;;;2.45;1.85;;;;;;;18.12;50.72;99553.75;;;;-54
2021/02/06 07:02:55;;;;;;;2.90;2.15;;;;;;;18.15;50.81;99560.70;;;;-54
2021/02/06 07:05:56;;;;;;;2.07;1.90;;;;;;;18.16;50.67;99566.28;;;;-54
2021/02/06 07:08:55;;;;;;;1.80;1.70;;;;;;;18.19;50.51;99570.58;;;;-55
2021/02/06 07:11:55;;;;;;;1.89;1.72;;;;;;;18.19;50.68;99565.79;;;;-54
2021/02/06 07:14:56;;;;;;;2.83;1.85;;;;;;;18.21;50.47;99562.38;;;;-55
2021/02/06 07:17:55;;;;;;;1.91;1.81;;;;;;;18.22;50.49;99563.02;;;;-54
2021/02/06 07:20:56;;;;;;;2.15;1.95;;;;;;;18.23;50.51;99554.59;;;;-54
2021/02/06 07:23:55;;;;;;;2.42;1.90;;;;;;;18.23;50.40;99555.08;;;;-55
2021/02/06 07:26:56;;;;;;;2.23;1.92;;;;;;;18.24;50.34;99546.81;;;;-55
2021/02/06 07:29:56;;;;;;;1.96;1.75;;;;;;;18.25;50.34;99547.37;;;;-54
2021/02/06 07:32:55;;;;;;;4.53;1.95;;;;;;;18.26;50.38;99551.92;;;;-54
2021/02/06 07:35:56;;;;;;;1.99;1.73;;;;;;;18.27;50.47;99552.40;;;;-55
2021/02/06 07:38:56;;;;;;;2.04;1.87;;;;;;;18.26;50.32;99553.78;;;;-54
2021/02/06 07:41:55;;;;;;;1.98;1.80;;;;;;;18.27;50.28;99556.12;;;;-55
2021/02/06 07:44:56;;;;;;;1.93;1.83;;;;;;;18.27;50.28;99558.55;;;;-54
2021/02/06 07:47:55;;;;;;;2.07;1.91;;;;;;;18.27;50.28;99553.70;;;;-55
2021/02/06 07:50:55;;;;;;;1.84;1.74;;;;;;;18.26;50.28;99550.38;;;;-55
2021/02/06 07:53:56;;;;;;;1.91;1.81;;;;;;;18.27;50.31;99545.66;;;;-54
2021/02/06 07:56:55;;;;;;;1.90;1.75;;;;;;;18.27;50.31;99548.42;;;;-56
2021/02/06 07:59:55;;;;;;;1.85;1.72;;;;;;;18.27;50.30;99545.91;;;;-55
2021/02/06 08:02:56;;;;;;;2.06;1.86;;;;;;;18.27;50.34;99540.56;;;;-57
2021/02/06 08:05:55;;;;;;;1.87;1.77;;;;;;;18.27;50.28;99539.34;;;;-58
2021/02/06 08:08:56;;;;;;;1.77;1.67;;;;;;;18.26;50.23;99537.05;;;;-58
2021/02/06 08:11:55;;;;;;;2.05;1.85;;;;;;;18.26;50.31;99539.84;;;;-58
2021/02/06 08:14:55;;;;;;;1.81;1.71;;;;;;;18.26;50.25;99537.73;;;;-56
2021/02/06 08:17:56;;;;;;;1.84;1.69;;;;;;;18.25;50.29;99545.17;;;;-56
2021/02/06 08:20:57;;;;;;;2.37;1.79;;;;;;;18.25;50.18;99550.85;;;;-57
2021/02/06 08:23:55;;;;;;;1.73;1.63;;;;;;;18.25;50.28;99551.50;;;;-58
2021/02/06 08:26:56;;;;;;;1.99;1.80;;;;;;;18.25;50.28;99553.94;;;;-57
2021/02/06 08:29:55;;;;;;;1.83;1.73;;;;;;;18.24;50.23;99550.31;;;;-56
2021/02/06 08:32:55;;;;;;;1.85;1.75;;;;;;;18.25;50.17;99552.00;;;;-58
2021/02/06 08:35:56;;;;;;;2.96;2.11;;;;;;;18.24;50.48;99549.64;;;;-53
2021/02/06 08:38:55;;;;;;;4.28;2.61;;;;;;;18.24;50.78;99545.52;;;;-56
2021/02/06 08:41:56;;;;;;;2.71;2.51;;;;;;;18.26;50.94;99544.44;;;;-56
2021/02/06 08:44:56;;;;;;;3.67;2.27;;;;;;;18.30;50.99;99542.56;;;;-54
2021/02/06 08:47:55;;;;;;;2.72;2.12;;;;;;;18.32;50.59;99531.28;;;;-54
2021/02/06 08:50:56;;;;;;;2.74;2.13;;;;;;;18.35;50.53;99530.16;;;;-51
2021/02/06 08:53:55;;;;;;;2.52;1.99;;;;;;;18.37;50.55;99529.48;;;;-51
2021/02/06 08:56:55;;;;;;;2.39;1.87;;;;;;;18.41;50.44;99530.69;;;;-50
2021/02/06 08:59:56;;;;;;;2.20;1.89;;;;;;;18.44;50.30;99530.34;;;;-50
2021/02/06 09:02:55;;;;;;;2.03;1.83;;;;;;;18.48;50.29;99526.36;;;;-51
2021/02/06 09:05:56;;;;;;;2.03;1.89;;;;;;;18.51;50.30;99520.48;;;;-50
2021/02/06 09:08:55;;;;;;;2.07;1.87;;;;;;;18.54;50.33;99516.67;;;;-50
2021/02/06 09:11:55;;;;;;;2.62;2.03;;;;;;;18.57;50.13;99514.08;;;;-50
2021/02/06 09:14:56;;;;;;;2.00;1.80;;;;;;;18.60;50.11;99514.62;;;;-51
2021/02/06 09:17:55;;;;;;;1.90;1.76;;;;;;;18.63;50.17;99507.53;;;;-51
2021/02/06 09:20:55;;;;;;;2.03;1.77;;;;;;;18.66;50.03;99503.07;;;;-50
2021/02/06 09:23:56;;;;;;;1.99;1.89;;;;;;;18.68;50.08;99496.72;;;;-50
2021/02/06 09:26:55;;;;;;;5.19;2.00;;;;;;;18.75;50.75;99493.35;;;;-45
2021/02/06 09:29:55;;;;;;;2.24;1.87;;;;;;;18.78;51.10;99485.70;;;;-44
2021/02/06 09:32:55;;;;;;;3.19;1.91;;;;;;;18.86;51.23;99486.41;;;;-50
2021/02/06 09:35:55;;;;;;;2.01;1.76;;;;;;;18.91;51.41;99486.55;;;;-49
2021/02/06 09:38:56;;;;;;;1.93;1.83;;;;;;;18.95;51.34;99481.89;;;;-51
2021/02/06 09:41:55;;;;;;;2.33;2.00;;;;;;;19.00;51.32;99471.28;;;;-51
2021/02/06 09:44:55;;;;;;;2.17;1.97;;;;;;;19.05;51.41;99458.73;;;;-54
2021/02/06 09:47:56;;;;;;;1.97;1.83;;;;;;;19.09;51.47;99453.45;;;;-53
2021/02/06 09:50:55;;;;;;;7.85;1.97;;;;;;;19.17;51.79;99456.84;;;;-54
2021/02/06 09:53:55;;;;;;;5.36;2.16;;;;;;;19.20;51.01;99452.05;;;;-57
2021/02/06 09:56:56;;;;;;;2.62;2.02;;;;;;;19.22;50.89;99450.49;;;;-57
2021/02/06 09:59:55;;;;;;;2.52;1.89;;;;;;;19.23;50.58;99446.08;;;;-57
2021/02/06 10:02:56;;;;;;;4.32;1.95;;;;;;;19.27;50.84;99445.97;;;;-53
2021/02/06 10:05:55;;;;;;;5.44;2.05;;;;;;;19.30;50.98;99446.42;;;;-55
2021/02/06 10:08:55;;;;;;;2.51;1.99;;;;;;;19.34;51.12;99450.37;;;;-54
2021/02/06 10:11:55;;;;;;;3.80;1.99;;;;;;;19.36;51.18;99450.61;;;;-56
2021/02/06 10:14:55;;;;;;;2.61;1.99;;;;;;;19.40;51.18;99453.41;;;;-57
2021/02/06 10:17:55;;;;;;;2.29;2.07;;;;;;;19.44;51.23;99449.22;;;;-54
2021/02/06 10:20:56;;;;;;;3.18;2.46;;;;;;;19.39;50.77;99450.08;;;;-51
2021/02/06 10:23:55;;;;;;;4.42;2.73;;;;;;;19.37;50.91;99459.20;;;;-57
2021/02/06 10:26:55;;;;;;;3.07;2.51;;;;;;;19.42;51.01;99457.46;;;;-48
2021/02/06 10:29:56;;;;;;;3.16;2.39;;;;;;;19.45;51.21;99460.02;;;;-47
2021/02/06 10:32:55;;;;;;;3.53;2.23;;;;;;;19.50;51.23;99455.34;;;;-52
2021/02/06 10:35:56;;;;;;;3.31;2.20;;;;;;;19.54;51.20;99450.84;;;;-49
2021/02/06 10:38:55;;;;;;;2.59;2.25;;;;;;;19.54;50.95;99448.13;;;;-47
2021/02/06 10:41:56;;;;;;;3.38;2.21;;;;;;;19.57;51.07;99433.16;;;;-48
2021/02/06 10:44:55;;;;;;;2.71;2.18;;;;;;;19.60;51.06;99429.30;;;;-48
2021/02/06 10:47:55;;;;;;;3.00;2.28;;;;;;;19.61;50.77;99447.52;;;;-49
2021/02/06 10:50:55;;;;;;;2.67;2.20;;;;;;;19.66;50.92;99451.84;;;;-48
2021/02/06 10:53:56;;;;;;;2.55;2.35;;;;;;;19.71;50.58;99437.75;;;;-51
2021/02/06 10:56:55;;;;;;;4.69;2.39;;;;;;;19.71;50.34;99443.68;;;;-52
2021/02/06 10:59:55;;;;;;;3.62;2.23;;;;;;;19.71;50.21;99424.41;;;;-51
2021/02/06 11:02:55;;;;;;;2.52;2.12;;;;;;;19.74;50.18;99401.72;;;;-53
2021/02/06 11:05:55;;;;;;;2.81;2.07;;;;;;;19.74;49.99;99396.12;;;;-53
2021/02/06 11:08:56;;;;;;;3.25;2.15;;;;;;;19.76;49.94;99388.20;;;;-54
2021/02/06 11:11:55;;;;;;;3.16;2.25;;;;;;;19.77;49.93;99393.72;;;;-55
2021/02/06 11:14:56;;;;;;;3.20;2.10;;;;;;;19.77;49.90;99394.28;;;;-48
2021/02/06 11:17:56;;;;;;;4.47;2.41;;;;;;;19.79;50.00;99417.83;;;;-59
2021/02/06 11:20:55;;;;;;;2.51;2.31;;;;;;;19.81;50.11;99411.39;;;;-51
2021/02/06 11:23:55;;;;;;;4.79;2.48;;;;;;;19.83;50.26;99399.82;;;;-51
2021/02/06 11:26:56;;;;;;;2.41;2.21;;;;;;;19.83;50.13;99391.11;;;;-46
2021/02/06 11:29:55;;;;;;;2.54;2.34;;;;;;;19.85;50.18;99387.36;;;;-52
2021/02/06 11:32:55;;;;;;;2.98;2.36;;;;;;;19.85;50.10;99385.66;;;;-53
2021/02/06 11:35:55;;;;;;;2.48;2.28;;;;;;;19.86;50.26;99379.64;;;;-51
2021/02/06 11:38:55;;;;;;;2.64;2.43;;;;;;;19.87;50.23;99374.49;;;;-53
2021/02/06 11:41:56;;;;;;;2.59;2.37;;;;;;;19.88;49.80;99374.80;;;;-58
2021/02/06 11:44:55;;;;;;;4.10;2.39;;;;;;;19.88;49.68;99377.55;;;;-59
2021/02/06 11:47:55;;;;;;;3.62;2.21;;;;;;;19.87;49.67;99374.33;;;;-52
2021/02/06 11:50:55;;;;;;;2.29;2.09;;;;;;;19.87;49.49;99380.75;;;;-58
2021/02/06 11:53:55;;;;;;;2.76;2.21;;;;;;;19.86;49.54;99387.11;;;;-52
2021/02/06 11:56:56;;;;;;;2.71;2.37;;;;;;;19.86;49.49;99393.77;;;;-55
2021/02/06 11:59:55;;;;;;;2.39;2.05;;;;;;;19.86;49.43;99384.83;;;;-52
2021/02/06 12:02:55;;;;;;;2.49;2.12;;;;;;;19.86;49.42;99377.18;;;;-54
2021/02/06 12:05:56;;;;;;;2.91;2.11;;;;;;;19.88;49.35;99383.50;;;;-54
2021/02/06 12:08:55;;;;;;;3.47;2.20;;;;;;;19.88;49.31;99361.89;;;;-54
2021/02/06 12:11:55;;;;;;;2.53;2.21;;;;;;;19.88;49.23;99356.69;;;;-54
2021/02/06 12:14:56;;;;;;;2.27;2.07;;;;;;;19.90;49.24;99362.34;;;;-52
2021/02/06 12:17:55;;;;;;;2.36;2.15;;;;;;;19.92;49.19;99353.85;;;;-54
2021/02/06 12:20:55;;;;;;;2.47;2.27;;;;;;;19.91;49.24;99335.56;;;;-54
2021/02/06 12:23:56;;;;;;;2.36;2.16;;;;;;;19.92;49.20;99327.83;;;;-54
2021/02/06 12:26:55;;;;;;;2.44;2.24;;;;;;;19.92;49.12;99329.61;;;;-54
2021/02/06 12:29:55;;;;;;;2.49;2.11;;;;;;;19.93;49.15;99330.49;;;;-54
2021/02/06 12:32:55;;;;;;;2.26;2.06;;;;;;;19.94;49.13;99324.63;;;;-58
2021/02/06 12:35:55;;;;;;;2.76;2.20;;;;;;;19.94;49.07;99312.75;;;;-58
2021/02/06 12:38:56;;;;;;;2.50;2.30;;;;;;;19.95;49.04;99303.90;;;;-54
2021/02/06 12:41:56;;;;;;;2.41;2.21;;;;;;;19.96;49.02;99308.57;;;;-54
2021/02/06 12:44:55;;;;;;;2.43;2.13;;;;;;;19.97;49.05;99317.91;;;;-58
2021/02/06 12:47:55;;;;;;;2.32;2.12;;;;;;;19.99;48.99;99319.92;;;;-54
2021/02/06 12:50:55;;;;;;;2.28;1.99;;;;;;;20.01;48.94;99328.77;;;;-55
2021/02/06 12:53:55;;;;;;;2.26;2.06;;;;;;;20.02;48.97;99320.12;;;;-52
2021/02/06 12:56:57;;;;;;;2.29;2.09;;;;;;;20.03;48.91;99317.53;;;;-54
2021/02/06 12:59:55;;;;;;;2.45;2.17;;;;;;;20.04;48.90;99324.25;;;;-54
2021/02/06 13:02:57;;;;;;;2.87;2.19;;;;;;;20.07;49.01;99332.77;;;;-55
2021/02/06 13:05:55;;;;;;;8.43;2.19;;;;;;;20.08;49.40;99324.77;;;;-50
2021/02/06 13:08:55;;;;;;;3.40;2.33;;;;;;;20.12;49.52;99312.25;;;;-51
2021/02/06 13:11:56;;;;;;;2.30;2.10;;;;;;;20.15;49.72;99313.19;;;;-53
2021/02/06 13:14:55;;;;;;;2.47;2.27;;;;;;;20.16;49.69;99309.28;;;;-47
2021/02/06 13:17:56;;;;;;;2.95;2.13;;;;;;;20.19;49.81;99311.42;;;;-52
2021/02/06 13:20:55;;;;;;;2.89;2.13;;;;;;;20.22;49.74;99303.50;;;;-47
2021/02/06 13:23:55;;;;;;;2.66;2.19;;;;;;;20.24;50.01;99298.82;;;;-51
2021/02/06 13:26:55;;;;;;;2.97;2.13;;;;;;;20.26;50.89;99292.46;;;;-58
2021/02/06 13:29:55;;;;;;;2.43;2.23;;;;;;;20.28;50.97;99288.02;;;;-53
2021/02/06 13:32:55;;;;;;;2.71;2.25;;;;;;;20.32;50.84;99277.56;;;;-53
2021/02/06 13:35:55;;;;;;;3.20;2.39;;;;;;;20.32;50.74;99275.44;;;;-56
2021/02/06 13:38:55;;;;;;;2.45;2.25;;;;;;;20.35;50.81;99264.78;;;;-51
2021/02/06 13:41:58;;;;;;;2.37;2.03;;;;;;;20.35;50.38;99256.73;;;;-47
2021/02/06 13:44:55;;;;;;;2.30;2.10;;;;;;;20.38;50.53;99260.43;;;;-50
2021/02/06 13:47:55;;;;;;;2.81;2.35;;;;;;;20.39;50.46;99251.86;;;;-50
2021/02/06 13:50:55;;;;;;;2.54;2.27;;;;;;;20.41;50.43;99244.59;;;;-54
2021/02/06 13:53:57;;;;;;;4.52;2.36;;;;;;;20.41;50.31;99237.54;;;;-48
2021/02/06 13:56:55;;;;;;;2.40;2.20;;;;;;;20.41;50.13;99236.06;;;;-49
2021/02/06 13:59:55;;;;;;;3.17;2.42;;;;;;;20.41;50.11;99233.78;;;;-52
2021/02/06 14:02:56;;;;;;;2.35;2.15;;;;;;;20.41;50.22;99227.83;;;;-51
2021/02/06 14:05:55;;;;;;;2.55;2.35;;;;;;;20.42;50.08;99224.16;;;;-57
2021/02/06 14:08:55;;;;;;;2.56;2.36;;;;;;;20.43;50.17;99233.19;;;;-53
2021/02/06 14:11:57;;;;;;;2.59;2.39;;;;;;;20.43;50.19;99235.39;;;;-61
2021/02/06 14:14:58;;;;;;;2.63;2.19;;;;;;;20.43;50.14;99232.36;;;;-58
2021/02/06 14:17:55;;;;;;;3.37;2.27;;;;;;;20.43;50.13;99226.19;;;;-48
2021/02/06 14:20:55;;;;;;;4.13;2.44;;;;;;;20.44;50.24;99220.55;;;;-56
2021/02/06 14:23:55;;;;;;;2.52;2.30;;;;;;;20.47;50.13;99213.26;;;;-55
2021/02/06 14:26:58;;;;;;;2.29;2.09;;;;;;;20.47;50.20;99207.72;;;;-51
2021/02/06 14:29:55;;;;;;;2.51;2.15;;;;;;;20.48;50.47;99196.06;;;;-49
2021/02/06 14:32:56;;;;;;;2.53;2.33;;;;;;;20.48;50.34;99183.38;;;;-59
2021/02/06 14:35:55;;;;;;;2.84;2.39;;;;;;;20.49;49.99;99177.72;;;;-51
2021/02/06 14:38:55;;;;;;;2.54;2.30;;;;;;;20.48;49.63;99166.67;;;;-51
2021/02/06 14:41:57;;;;;;;2.60;2.40;;;;;;;20.48;49.42;99164.83;;;;-59
2021/02/06 14:44:55;;;;;;;3.15;2.40;;;;;;;20.48;49.35;99174.58;;;;-53
2021/02/06 14:47:58;;;;;;;2.65;2.45;;;;;;;20.46;49.24;99178.05;;;;-53
2021/02/06 14:50:55;;;;;;;2.60;2.40;;;;;;;20.45;49.43;99183.59;;;;-51
2021/02/06 14:53:55;;;;;;;2.62;2.41;;;;;;;20.47;49.66;99175.32;;;;-51
2021/02/06 14:56:56;;;;;;;2.55;2.35;;;;;;;20.48;49.66;99168.72;;;;-49
2021/02/06 14:59:55;;;;;;;2.67;2.43;;;;;;;20.48;49.57;99161.41;;;;-48
2021/02/06 15:02:55;;;;;;;5.13;2.69;;;;;;;20.50;50.01;99151.93;;;;-50
2021/02/06 15:05:55;;;;;;;5.69;2.67;;;;;;;20.52;49.79;99148.88;;;;-52
2021/02/06 15:08:55;;;;;;;2.91;2.62;;;;;;;20.53;50.01;99139.92;;;;-53
2021/02/06 15:11:55;;;;;;;3.09;2.79;;;;;;;20.53;49.90;99148.70;;;;-54
2021/02/06 15:14:55;;;;;;;3.56;2.89;;;;;;;20.54;49.95;99139.00;;;;-52
2021/02/06 15:17:55;;;;;;;3.31;2.85;;;;;;;20.56;49.88;99124.87;;;;-53
2021/02/06 15:20:55;;;;;;;3.91;2.96;;;;;;;20.57;49.99;99129.66;;;;-50
2021/02/06 15:23:55;;;;;;;3.66;2.73;;;;;;;20.59;49.80;99128.52;;;;-46
2021/02/06 15:26:55;;;;;;;3.79;2.86;;;;;;;20.59;49.92;99130.23;;;;-47
2021/02/06 15:29:55;;;;;;;3.10;2.80;;;;;;;20.59;49.80;99126.39;;;;-52
2021/02/06 15:32:55;;;;;;;3.33;3.03;;;;;;;20.59;49.92;99122.08;;;;-58
2021/02/06 15:35:55;;;;;;;3.74;2.81;;;;;;;20.61;49.82;99120.64;;;;-52
2021/02/06 15:38:58;;;;;;;3.32;3.02;;;;;;;20.61;49.91;99122.28;;;;-51
2021/02/06 15:41:55;;;;;;;3.97;3.04;;;;;;;20.63;50.02;99117.61;;;;-50
2021/02/06 15:44:55;;;;;;;3.47;3.17;;;;;;;20.61;50.16;99121.80;;;;-57
2021/02/06 15:47:55;;;;;;;3.34;3.00;;;;;;;20.62;50.27;99133.72;;;;-51
2021/02/06 15:50:55;;;;;;;3.70;2.97;;;;;;;20.63;49.73;99136.34;;;;-57
2021/02/06 15:53:55;;;;;;;3.29;2.74;;;;;;;20.61;49.36;99123.52;;;;-52
2021/02/06 15:56:55;;;;;;;5.03;2.79;;;;;;;20.60;49.24;99117.81;;;;-52
2021/02/06 15:59:55;;;;;;;3.09;2.79;;;;;;;20.60;49.12;99113.43;;;;-54
2021/02/06 16:02:55;;;;;;;3.16;2.84;;;;;;;20.56;49.06;99098.65;;;;-52
2021/02/06 16:05:55;;;;;;;3.59;2.71;;;;;;;20.57;49.40;99102.06;;;;-59
2021/02/06 16:08:55;;;;;;;3.23;2.87;;;;;;;20.60;49.72;99091.69;;;;-52
2021/02/06 16:11:55;;;;;;;3.44;2.57;;;;;;;20.62;49.38;99088.72;;;;-53
2021/02/06 16:14:55;;;;;;;3.49;2.68;;;;;;;20.61;49.23;99076.37;;;;-57
2021/02/06 16:17:55;;;;;;;5.11;2.78;;;;;;;20.61;49.40;99073.94;;;;-60
2021/02/06 16:20:55;;;;;;;3.32;2.83;;;;;;;20.61;49.67;99074.25;;;;-48
2021/02/06 16:23:55;;;;;;;2.99;2.69;;;;;;;20.61;49.94;99076.96;;;;-46
2021/02/06 16:26:55;;;;;;;3.99;2.96;;;;;;;20.64;49.83;99077.19;;;;-46
2021/02/06 16:29:56;;;;;;;4.13;2.69;;;;;;;20.65;49.82;99040.55;;;;-52
2021/02/06 16:32:55;;;;;;;3.45;2.75;;;;;;;20.64;49.82;99031.39;;;;-54
2021/02/06 16:35:55;;;;;;;2.93;2.70;;;;;;;20.64;49.88;99010.13;;;;-52
2021/02/06 16:38:55;;;;;;;2.84;2.61;;;;;;;20.65;49.90;98993.84;;;;-55
2021/02/06 16:41:55;;;;;;;2.69;2.49;;;;;;;20.66;49.85;98993.80;;;;-49
2021/02/06 16:44:55;;;;;;;3.08;2.77;;;;;;;20.66;49.82;98997.05;;;;-52
2021/02/06 16:47:55;;;;;;;3.27;2.81;;;;;;;20.67;50.10;98998.04;;;;-47
2021/02/06 16:50:55;;;;;;;2.89;2.58;;;;;;;20.68;50.01;99002.14;;;;-51
2021/02/06 16:53:55;;;;;;;3.09;2.80;;;;;;;20.69;50.01;99005.06;;;;-59
2021/02/06 16:56:55;;;;;;;2.87;2.59;;;;;;;20.70;50.14;98999.09;;;;-45